createdAt,value
2018-11-21T00:02:25.881Z,47.97
2018-11-21T00:04:58.269Z,57.80
2018-11-21T00:07:32.165Z,65.73
2018-11-21T00:10:03.345Z,81.87
2018-11-21T00:12:33.695Z,70.53
2018-11-21T00:15:04.289Z,79.60
2018-11-21T00:17:34.686Z,67.67
2018-11-21T00:20:05.851Z,62.20
2018-11-21T00:22:37.874Z,60.53
2018-11-21T00:25:08.277Z,76.73
2018-11-21T00:27:46.813Z,59.40
2018-11-21T00:30:17.432Z,75.13
2018-11-21T00:32:47.713Z,71.67
2018-11-21T00:35:18.125Z,70.10
2018-11-21T00:38:03.578Z,71.43
2018-11-21T00:40:56.270Z,61.67
2018-11-21T00:43:26.990Z,69.67
2018-11-21T00:46:02.809Z,79.43
2018-11-21T00:48:39.596Z,91.00
2018-11-21T00:51:09.321Z,161.63
2018-11-21T00:53:45.609Z,74.37
2018-11-21T00:56:21.489Z,70.77
2018-11-21T00:58:51.737Z,82.90
2018-11-21T01:01:22.799Z,110.53
2018-11-21T01:04:01.877Z,92.70
2018-11-21T01:06:32.368Z,79.03
2018-11-21T01:09:06.637Z,82.33
2018-11-21T01:11:37.384Z,65.40
2018-11-21T01:14:08.361Z,113.67
2018-11-21T01:16:43.249Z,65.63
2018-11-21T01:19:16.482Z,74.63
2018-11-21T01:21:46.796Z,66.43
2018-11-21T01:24:25.758Z,104.07
2018-11-21T01:26:56.060Z,113.17
2018-11-21T01:29:29.560Z,71.20
2018-11-21T01:32:06.967Z,74.97
2018-11-21T01:34:37.696Z,69.93
2018-11-21T01:37:08.637Z,73.63
2018-11-21T01:39:41.659Z,80.43
2018-11-21T01:42:12.804Z,70.40
2018-11-21T01:44:43.146Z,97.17
2018-11-21T01:47:13.675Z,65.27
2018-11-21T01:49:44.335Z,105.07
2018-11-21T01:52:16.597Z,67.43
2018-11-21T01:54:47.016Z,91.67
2018-11-21T01:57:19.724Z,103.40
2018-11-21T01:59:59.795Z,99.20
2018-11-21T02:02:33.827Z,101.20
2018-11-21T02:05:07.580Z,127.70
2018-11-21T02:07:46.896Z,107.30
2018-11-21T02:10:20.967Z,92.60
2018-11-21T02:12:55.243Z,78.77
2018-11-21T02:15:36.193Z,111.30
2018-11-21T02:18:13.157Z,131.00
2018-11-21T02:20:51.086Z,73.20
2018-11-21T02:23:27.854Z,112.27
2018-11-21T02:26:02.492Z,67.23
2018-11-21T02:28:32.868Z,71.13
2018-11-21T02:31:03.474Z,71.07
2018-11-21T02:33:38.751Z,88.70
2018-11-21T02:36:11.891Z,68.80
2018-11-21T02:38:45.755Z,94.10
2018-11-21T02:41:18.032Z,85.43
2018-11-21T02:43:50.984Z,105.33
2018-11-21T02:46:24.646Z,102.30
2018-11-21T02:49:01.324Z,80.73
2018-11-21T02:51:34.681Z,72.30
2018-11-21T02:54:10.021Z,98.87
2018-11-21T02:57:25.870Z,83.47
2018-11-21T02:59:59.920Z,86.20
2018-11-21T03:02:30.580Z,74.27
2018-11-21T03:05:00.998Z,72.63
2018-11-21T03:07:39.728Z,77.40
2018-11-21T03:10:12.902Z,128.57
2018-11-21T03:12:45.961Z,95.70
2018-11-21T03:15:19.840Z,73.53
2018-11-21T03:17:59.541Z,157.33
2018-11-21T03:20:29.624Z,83.73
2018-11-21T03:23:01.405Z,92.90
2018-11-21T03:25:33.572Z,79.43
2018-11-21T03:28:04.056Z,80.33
2018-11-21T03:30:36.399Z,88.30
2018-11-21T03:33:05.232Z,117.27
2018-11-21T03:35:42.425Z,68.73
2018-11-21T03:38:20.690Z,65.47
2018-11-21T03:40:55.447Z,80.20
2018-11-21T03:43:33.388Z,98.03
2018-11-21T03:46:03.901Z,75.73
2018-11-21T03:48:46.865Z,74.70
2018-11-21T03:51:17.266Z,82.70
2018-11-21T03:53:47.782Z,72.83
2018-11-21T03:56:20.742Z,75.63
2018-11-21T03:58:51.161Z,106.10
2018-11-21T04:01:21.702Z,92.13
2018-11-21T04:03:55.114Z,71.07
2018-11-21T04:06:25.403Z,105.40
2018-11-21T04:09:02.851Z,70.97
2018-11-21T04:11:38.806Z,76.57
2018-11-21T04:14:09.546Z,69.43
2018-11-21T04:16:42.998Z,69.27
2018-11-21T04:19:18.150Z,65.60
2018-11-21T04:21:48.777Z,81.47
2018-11-21T04:24:39.238Z,94.60
2018-11-21T04:27:09.581Z,65.37
2018-11-21T04:29:42.888Z,72.90
2018-11-21T04:32:15.183Z,94.00
2018-11-21T04:34:45.575Z,75.20
2018-11-21T04:37:23.722Z,70.03
2018-11-21T04:39:54.633Z,70.50
2018-11-21T04:42:29.672Z,74.40
2018-11-21T04:45:01.017Z,63.50
2018-11-21T04:47:33.498Z,79.40
2018-11-21T04:50:03.931Z,78.43
2018-11-21T04:52:34.639Z,70.63
2018-11-21T04:55:10.993Z,71.40
2018-11-21T04:57:48.638Z,88.90
2018-11-21T05:00:32.235Z,94.23
2018-11-21T05:03:02.611Z,89.57
2018-11-21T05:05:37.456Z,71.00
2018-11-21T05:08:08.812Z,69.83
2018-11-21T05:10:37.741Z,84.47
2018-11-21T05:13:08.675Z,63.40
2018-11-21T05:15:47.155Z,89.70
2018-11-21T05:18:20.783Z,78.47
2018-11-21T05:20:52.217Z,62.60
2018-11-21T05:23:23.269Z,64.60
2018-11-21T05:25:56.870Z,68.77
2018-11-21T05:31:02.066Z,65.07
2018-11-21T05:33:38.682Z,69.07
2018-11-21T05:36:20.726Z,67.03
2018-11-21T05:38:52.976Z,65.23
2018-11-21T05:41:29.260Z,64.67
2018-11-21T05:44:05.113Z,64.43
2018-11-21T05:46:39.867Z,65.90
2018-11-21T05:49:12.335Z,63.33
2018-11-21T05:51:45.405Z,75.93
2018-11-21T05:54:18.948Z,54.77
2018-11-21T05:57:03.172Z,67.37
2018-11-21T05:59:44.887Z,69.63
2018-11-21T06:02:24.239Z,65.40
2018-11-21T06:04:56.588Z,64.00
2018-11-21T06:07:30.920Z,65.90
2018-11-21T06:10:06.095Z,65.40
2018-11-21T06:12:44.175Z,63.70
2018-11-21T06:15:16.392Z,61.70
2018-11-21T06:17:57.416Z,90.50
2018-11-21T06:20:34.661Z,71.03
2018-11-21T06:23:09.836Z,71.83
2018-11-21T06:25:50.092Z,65.27
2018-11-21T06:28:20.948Z,70.17
2018-11-21T06:30:53.572Z,65.87
2018-11-21T06:33:28.706Z,88.50
2018-11-21T06:36:08.456Z,76.03
2018-11-21T06:38:44.555Z,78.37
2018-11-21T06:41:21.651Z,75.30
2018-11-21T06:43:54.789Z,75.87
2018-11-21T06:46:27.356Z,72.57
2018-11-21T06:49:02.555Z,79.60
2018-11-21T06:51:41.957Z,81.23
2018-11-21T06:54:15.162Z,75.80
2018-11-21T06:56:47.525Z,77.13
2018-11-21T06:59:19.961Z,74.13
2018-11-21T07:01:53.275Z,70.80
2018-11-21T07:04:31.235Z,82.23
2018-11-21T07:07:09.324Z,80.33
2018-11-21T07:09:43.622Z,70.73
2018-11-21T07:12:18.060Z,81.63
2018-11-21T07:14:50.292Z,75.43
2018-11-21T07:17:23.344Z,107.73
2018-11-21T07:20:00.375Z,69.50
2018-11-21T07:22:37.197Z,81.80
2018-11-21T07:25:19.697Z,92.23
2018-11-21T07:27:52.946Z,70.13
2018-11-21T07:30:26.130Z,67.03
2018-11-21T07:33:04.740Z,82.60
2018-11-21T07:35:41.063Z,77.07
2018-11-21T07:38:26.167Z,71.43
2018-11-21T07:40:59.839Z,73.80
2018-11-21T07:43:32.104Z,63.63
2018-11-21T07:46:04.722Z,81.57
2018-11-21T07:48:40.167Z,103.40
2018-11-21T07:51:16.338Z,84.43
2018-11-21T07:53:50.773Z,96.20
2018-11-21T07:57:32.302Z,81.07
2018-11-21T08:00:56.444Z,67.30
2018-11-21T08:03:28.578Z,68.47
2018-11-21T08:06:19.307Z,63.77
2018-11-21T08:09:28.161Z,66.20
2018-11-21T08:12:25.997Z,60.00
2018-11-21T08:15:22.982Z,77.57
2018-11-21T08:18:05.956Z,72.70
2018-11-21T08:20:57.375Z,69.73
2018-11-21T08:23:47.991Z,59.00
2018-11-21T08:26:38.896Z,69.87
2018-11-21T08:29:12.098Z,63.53
2018-11-21T08:31:44.517Z,73.07
2018-11-21T08:34:19.204Z,71.07
2018-11-21T08:36:51.469Z,68.37
2018-11-21T08:39:27.390Z,74.80
2018-11-21T08:42:02.400Z,70.27
2018-11-21T08:44:34.984Z,73.20
2018-11-21T08:47:12.998Z,70.70
2018-11-21T08:49:49.988Z,75.90
2018-11-21T08:52:36.834Z,75.77
2018-11-21T08:55:13.264Z,71.60
2018-11-21T08:57:49.388Z,77.17
2018-11-21T09:00:20.582Z,59.97
2018-11-21T09:02:57.069Z,77.80
2018-11-21T09:05:43.092Z,70.53
2018-11-21T09:08:19.664Z,67.57
2018-11-21T09:10:51.475Z,100.80
2018-11-21T09:13:29.996Z,129.57
2018-11-21T09:16:05.636Z,77.10
2018-11-21T09:18:40.066Z,76.10
2018-11-21T09:21:15.883Z,73.20
2018-11-21T09:23:50.213Z,55.87
2018-11-21T09:26:23.227Z,80.73
2018-11-21T09:28:55.544Z,72.47
2018-11-21T09:31:27.894Z,64.67
2018-11-21T09:34:00.750Z,73.37
2018-11-21T09:36:33.379Z,70.30
2018-11-21T09:39:08.890Z,65.47
2018-11-21T09:41:47.234Z,72.17
2018-11-21T09:44:33.644Z,69.83
2018-11-21T09:47:06.698Z,76.07
2018-11-21T09:49:51.577Z,74.40
2018-11-21T09:52:23.932Z,69.83
2018-11-21T09:54:56.577Z,67.27
2018-11-21T09:57:30.481Z,62.20
2018-11-21T10:00:05.464Z,60.97
2018-11-21T10:03:16.896Z,76.40
2018-11-21T10:06:00.115Z,72.77
2018-11-21T10:08:49.523Z,66.23
2018-11-21T10:11:24.721Z,62.20
2018-11-21T10:13:57.191Z,58.93
2018-11-21T10:16:35.489Z,65.70
2018-11-21T10:19:08.554Z,75.60
2018-11-21T10:21:47.531Z,60.67
2018-11-21T10:24:31.215Z,58.73
2018-11-21T10:27:05.297Z,70.47
2018-11-21T10:29:39.679Z,61.40
2018-11-21T10:32:14.691Z,74.07
2018-11-21T10:34:47.961Z,59.97
2018-11-21T10:37:24.387Z,57.03
2018-11-21T10:39:57.503Z,63.77
2018-11-21T10:42:32.896Z,66.00
2018-11-21T10:45:19.655Z,75.20
2018-11-21T10:47:52.251Z,93.60
2018-11-21T10:50:28.666Z,73.47
2018-11-21T10:53:05.200Z,74.00
2018-11-21T10:55:40.664Z,89.63
2018-11-21T10:58:13.154Z,79.03
2018-11-21T11:01:09.170Z,71.93
2018-11-21T11:03:52.756Z,61.20
2018-11-21T11:06:52.102Z,72.47
2018-11-21T11:09:43.986Z,73.67
2018-11-21T11:12:57.765Z,67.70
2018-11-21T11:16:00.858Z,72.00
2018-11-21T11:18:53.909Z,61.87
2018-11-21T11:22:01.885Z,71.90
2018-11-21T11:24:49.576Z,72.83
2018-11-21T11:27:41.096Z,73.20
2018-11-21T11:30:50.113Z,75.07
2018-11-21T11:33:50.713Z,82.20
2018-11-21T11:36:56.713Z,69.07
2018-11-21T11:39:50.853Z,81.57
2018-11-21T11:42:51.881Z,75.47
2018-11-21T11:45:43.550Z,70.87
2018-11-21T11:48:42.597Z,72.07
2018-11-21T11:51:30.693Z,75.43
2018-11-21T11:54:22.127Z,78.67
2018-11-21T11:57:06.802Z,78.63
2018-11-21T12:00:04.371Z,70.50
2018-11-21T12:03:18.167Z,73.83
2018-11-21T12:06:10.734Z,70.47
2018-11-21T12:09:04.414Z,78.60
2018-11-21T12:12:04.749Z,80.10
2018-11-21T12:15:07.858Z,73.23
2018-11-21T12:17:55.784Z,76.10
2018-11-21T12:21:04.966Z,83.17
2018-11-21T12:23:57.729Z,82.67
2018-11-21T12:26:49.780Z,91.17
2018-11-21T12:30:04.090Z,79.77
2018-11-21T12:33:11.089Z,82.70
2018-11-21T12:36:25.666Z,82.93
2018-11-21T12:39:17.449Z,81.70
2018-11-21T12:42:13.590Z,82.83
2018-11-21T12:45:27.987Z,80.70
2018-11-21T12:48:26.045Z,92.07
2018-11-21T12:51:33.189Z,81.23
2018-11-21T12:54:45.560Z,89.40
2018-11-21T12:57:48.420Z,80.13
2018-11-21T13:00:51.588Z,87.17
2018-11-21T13:03:52.963Z,82.47
2018-11-21T13:07:02.703Z,82.50
2018-11-21T13:09:46.511Z,82.60
2018-11-21T13:12:49.535Z,77.97
2018-11-21T13:15:43.508Z,80.10
2018-11-21T13:18:44.467Z,74.07
2018-11-21T13:21:40.400Z,72.70
2018-11-21T13:24:32.910Z,71.60
2018-11-21T13:27:27.341Z,73.80
2018-11-21T13:30:33.943Z,68.23
2018-11-21T13:33:24.806Z,80.90
2018-11-21T13:36:35.160Z,78.70
2018-11-21T13:39:46.604Z,71.93
2018-11-21T13:42:39.415Z,85.87
2018-11-21T13:45:36.112Z,78.23
2018-11-21T13:48:36.828Z,85.80
2018-11-21T13:51:31.630Z,85.67
2018-11-21T13:54:25.205Z,84.93
2018-11-21T13:56:59.901Z,88.10
2018-11-21T13:59:37.446Z,79.83
2018-11-21T14:02:09.937Z,85.40
2018-11-21T14:04:43.544Z,75.53
2018-11-21T14:07:19.461Z,73.73
2018-11-21T14:10:06.022Z,82.40
2018-11-21T14:12:38.455Z,71.17
2018-11-21T14:15:13.269Z,77.70
2018-11-21T14:17:50.592Z,80.73
2018-11-21T14:20:23.143Z,80.50
2018-11-21T14:22:55.519Z,72.00
2018-11-21T14:25:34.039Z,73.87
2018-11-21T14:28:06.637Z,85.90
2018-11-21T14:30:43.031Z,70.83
2018-11-21T14:33:16.779Z,89.67
2018-11-21T14:35:52.279Z,80.70
2018-11-21T14:38:25.153Z,72.47
2018-11-21T14:41:04.947Z,78.97
2018-11-21T14:43:52.559Z,71.50
2018-11-21T14:46:34.773Z,85.33
2018-11-21T14:49:08.043Z,84.03
2018-11-21T14:51:40.627Z,76.47
2018-11-21T14:54:16.746Z,78.23
2018-11-21T14:56:59.368Z,86.87
2018-11-21T14:59:33.028Z,79.40
2018-11-21T15:02:08.139Z,68.63
2018-11-21T15:04:40.711Z,68.80
2018-11-21T15:07:13.777Z,84.13
2018-11-21T15:09:58.626Z,76.93
2018-11-21T15:12:29.535Z,72.60
2018-11-21T15:15:04.428Z,75.57
2018-11-21T15:17:37.086Z,76.60
2018-11-21T15:20:19.842Z,67.93
2018-11-21T15:22:55.341Z,83.50
2018-11-21T15:25:28.490Z,82.30
2018-11-21T15:28:01.894Z,79.17
2018-11-21T15:30:34.498Z,73.40
2018-11-21T15:33:07.930Z,88.93
2018-11-21T15:35:43.175Z,82.50
2018-11-21T15:38:19.332Z,74.23
2018-11-21T15:40:54.048Z,84.07
2018-11-21T15:43:27.373Z,78.30
2018-11-21T15:46:04.062Z,75.73
2018-11-21T15:48:36.415Z,83.43
2018-11-21T15:51:09.242Z,86.77
2018-11-21T15:53:45.403Z,84.80
2018-11-21T15:56:26.424Z,78.20
2018-11-21T15:59:01.303Z,80.37
2018-11-21T16:01:38.622Z,83.23
2018-11-21T16:04:14.148Z,75.73
2018-11-21T16:06:58.034Z,73.90
2018-11-21T16:09:46.088Z,87.90
2018-11-21T16:12:18.516Z,94.13
2018-11-21T16:14:53.118Z,76.90
2018-11-21T16:17:26.073Z,92.80
2018-11-21T16:20:03.789Z,81.97
2018-11-21T16:22:46.043Z,86.93
2018-11-21T16:25:26.966Z,67.93
2018-11-21T16:28:01.767Z,74.17
2018-11-21T16:30:37.777Z,94.53
2018-11-21T16:33:14.066Z,68.90
2018-11-21T16:35:56.516Z,63.93
2018-11-21T16:38:32.124Z,75.73
2018-11-21T16:41:05.897Z,69.37
2018-11-21T16:43:38.625Z,73.43
2018-11-21T16:46:11.477Z,75.10
2018-11-21T16:48:52.540Z,68.57
2018-11-21T16:51:25.975Z,67.90
2018-11-21T16:53:59.879Z,66.03
2018-11-21T16:56:33.127Z,67.60
2018-11-21T16:59:06.335Z,61.13
2018-11-21T17:01:42.239Z,65.67
2018-11-21T17:04:15.254Z,58.40
2018-11-21T17:06:50.734Z,66.40
2018-11-21T17:09:25.498Z,70.37
2018-11-21T17:11:59.726Z,70.80
2018-11-21T17:14:32.867Z,67.97
2018-11-21T17:17:06.243Z,65.10
2018-11-21T17:19:40.071Z,68.57
2018-11-21T17:22:23.735Z,75.50
2018-11-21T17:24:57.292Z,64.73
2018-11-21T17:27:30.805Z,67.73
2018-11-21T17:30:05.033Z,54.60
2018-11-21T17:32:41.193Z,61.77
2018-11-21T17:35:21.426Z,64.90
2018-11-21T17:37:56.172Z,69.70
2018-11-21T17:40:36.860Z,59.83
2018-11-21T17:43:18.936Z,67.00
2018-11-21T17:46:04.136Z,65.50
2018-11-21T17:48:37.297Z,61.93
2018-11-21T17:51:12.420Z,65.63
2018-11-21T17:54:45.064Z,69.10
2018-11-21T17:56:44.436Z,67.30
2018-11-21T17:59:19.847Z,68.33
2018-11-21T18:01:54.159Z,65.00
2018-11-21T18:04:35.284Z,63.63
2018-11-21T18:07:08.633Z,68.37
2018-11-21T18:09:55.129Z,63.90
2018-11-21T18:12:32.146Z,61.23
2018-11-21T18:15:06.293Z,62.87
2018-11-21T18:17:42.017Z,61.40
2018-11-21T18:20:19.078Z,66.27
2018-11-21T18:22:58.405Z,68.10
2018-11-21T18:25:41.682Z,73.90
2018-11-21T18:28:35.908Z,63.23
2018-11-21T18:31:24.587Z,67.20
2018-11-21T18:34:07.173Z,65.27
2018-11-21T18:36:41.362Z,68.63
2018-11-21T18:39:19.998Z,69.87
2018-11-21T18:41:58.112Z,62.77
2018-11-21T18:44:29.476Z,60.70
2018-11-21T18:47:08.405Z,62.97
2018-11-21T18:49:48.821Z,56.37
2018-11-21T18:52:21.669Z,59.93
2018-11-21T18:55:00.113Z,52.80
2018-11-21T18:58:28.563Z,61.90
2018-11-21T19:01:03.098Z,45.10
2018-11-21T19:03:42.266Z,53.47
2018-11-21T19:06:17.729Z,49.30
2018-11-21T19:08:53.681Z,52.13
2018-11-21T19:11:26.510Z,46.27
2018-11-21T19:14:03.529Z,49.00
2018-11-21T19:16:38.105Z,46.30
2018-11-21T19:19:11.001Z,45.47
2018-11-21T19:21:50.261Z,42.07
2018-11-21T19:24:27.880Z,41.37
2018-11-21T19:27:00.937Z,40.03
2018-11-21T19:29:34.841Z,37.20
2018-11-21T19:32:08.603Z,39.73
2018-11-21T19:34:49.187Z,37.83
2018-11-21T19:37:30.010Z,40.50
2018-11-21T19:40:05.875Z,37.73
2018-11-21T19:42:42.674Z,36.27
2018-11-21T19:45:29.847Z,41.03
2018-11-21T19:48:04.739Z,38.00
2018-11-21T19:50:40.161Z,38.37
2018-11-21T19:53:14.100Z,33.53
2018-11-21T19:55:55.968Z,34.67
2018-11-21T19:58:30.492Z,36.00
2018-11-21T20:01:03.441Z,47.67
2018-11-21T20:03:36.801Z,40.90
2018-11-21T20:06:11.817Z,34.60
2018-11-21T20:08:44.951Z,41.10
2018-11-21T20:11:18.772Z,36.60
2018-11-21T20:13:57.692Z,41.00
2018-11-21T20:16:35.138Z,40.07
2018-11-21T20:19:13.182Z,46.83
2018-11-21T20:21:48.548Z,37.03
2018-11-21T20:24:23.065Z,38.33
2018-11-21T20:26:56.604Z,34.37
2018-11-21T20:29:32.331Z,34.03
2018-11-21T20:32:05.304Z,37.53
2018-11-21T20:34:46.570Z,38.30
2018-11-21T20:37:21.032Z,31.97
2018-11-21T20:39:54.315Z,43.40
2018-11-21T20:42:27.770Z,39.57
2018-11-21T20:45:02.065Z,39.20
2018-11-21T20:47:37.723Z,36.20
2018-11-21T20:50:12.353Z,38.17
2018-11-21T20:52:46.766Z,41.70
2018-11-21T20:55:24.178Z,35.87
2018-11-21T20:57:58.144Z,40.17
2018-11-21T21:00:33.576Z,40.57
2018-11-21T21:05:41.374Z,35.67
2018-11-21T21:08:20.653Z,37.90
2018-11-21T21:10:54.387Z,40.97
2018-11-21T21:13:29.131Z,40.50
2018-11-21T21:16:06.006Z,39.97
2018-11-21T21:18:42.723Z,44.33
2018-11-21T21:21:16.318Z,41.53
2018-11-21T21:23:51.740Z,37.10
2018-11-21T21:26:25.867Z,43.50
2018-11-21T21:29:09.411Z,48.97
2018-11-21T21:31:42.896Z,40.67
2018-11-21T21:34:18.787Z,39.10
2018-11-21T21:36:55.648Z,45.67
2018-11-21T21:39:37.818Z,43.37
2018-11-21T21:42:16.250Z,43.40
2018-11-21T21:44:52.762Z,42.70
2018-11-21T21:47:28.365Z,35.17
2018-11-21T21:50:06.187Z,45.73
2018-11-21T21:52:40.328Z,41.50
2018-11-21T21:55:22.678Z,51.07
2018-11-21T21:57:57.284Z,48.10
2018-11-21T22:00:34.039Z,47.57
2018-11-21T22:03:16.238Z,48.40
2018-11-21T22:05:57.880Z,45.33
2018-11-21T22:08:30.863Z,44.00
2018-11-21T22:11:06.704Z,45.97
2018-11-21T22:13:38.400Z,44.40
2018-11-21T22:16:18.400Z,42.20
2018-11-21T22:18:57.047Z,45.10
2018-11-21T22:21:36.726Z,46.80
2018-11-21T22:24:12.698Z,40.80
2018-11-21T22:26:46.005Z,42.63
2018-11-21T22:29:19.866Z,47.10
2018-11-21T22:31:55.179Z,40.47
2018-11-21T22:34:30.526Z,43.50
2018-11-21T22:37:10.826Z,44.70
2018-11-21T22:39:46.792Z,41.80
2018-11-21T22:42:19.774Z,45.03
2018-11-21T22:44:54.276Z,42.77
2018-11-21T22:47:27.380Z,42.93
2018-11-21T22:50:01.102Z,42.30
2018-11-21T22:52:34.343Z,41.60
2018-11-21T22:55:07.689Z,47.70
2018-11-21T22:57:43.832Z,40.40
2018-11-21T23:00:40.022Z,44.43
2018-11-21T23:03:19.311Z,48.10
2018-11-21T23:05:53.796Z,51.53
2018-11-21T23:08:25.531Z,46.80
2018-11-21T23:10:58.628Z,48.27
2018-11-21T23:13:32.105Z,49.10
2018-11-21T23:16:04.970Z,45.10
2018-11-21T23:18:41.209Z,66.20
2018-11-21T23:21:19.589Z,49.10
2018-11-21T23:23:52.556Z,45.07
2018-11-21T23:26:26.027Z,49.53
2018-11-21T23:28:58.670Z,44.80
2018-11-21T23:31:38.782Z,55.63
2018-11-21T23:34:12.776Z,52.20
2018-11-21T23:36:49.543Z,53.47
2018-11-21T23:39:22.041Z,48.43
2018-11-21T23:41:54.514Z,53.03
2018-11-21T23:44:27.293Z,47.10
2018-11-21T23:47:09.280Z,60.57
2018-11-21T23:49:47.400Z,55.33
2018-11-21T23:52:22.178Z,57.03
2018-11-21T23:54:59.519Z,58.67
2018-11-21T23:57:35.254Z,56.07
